Time;durP1;ratioP1;P1;durP2;ratioP2;P2;SDS_P1;SDS_P2;PMS_P1;PMS_P2;Temp;Humidity;BMP_temperature;BMP_pressure;BME280_temperature;BME280_humidity;BME280_pressure;Samples;Min_cycle;Max_cycle;Signal;HPM_P1;HPM_P2
2023/12/15 00:00:14;;;;;;;;;;;5.50;99.90;;;;;;4984893;28;20008;-73
2023/12/15 00:02:40;;;;;;;;;;;5.40;99.90;;;;;;4986025;28;20008;-76
2023/12/15 00:05:05;;;;;;;;;;;5.40;99.90;;;;;;4984171;28;20466;-78
2023/12/15 00:07:31;;;;;;;;;;;5.40;99.90;;;;;;5011872;28;19921;-78
2023/12/15 00:09:56;;;;;;;;;;;5.50;99.90;;;;;;4998276;28;19917;-78
2023/12/15 00:12:22;;;;;;;;;;;5.40;99.90;;;;;;5001493;28;19917;-79
2023/12/15 00:14:47;;;;;;;;;;;5.50;99.90;;;;;;4998770;28;19917;-78
2023/12/15 00:17:13;;;;;;;;;;;5.50;99.90;;;;;;4999251;28;19944;-79
2023/12/15 00:19:38;;;;;;;;;;;5.40;99.90;;;;;;4994495;28;19925;-79
2023/12/15 00:22:04;;;;;;;;;;;5.50;99.90;;;;;;4997693;28;19921;-78
2023/12/15 00:24:30;;;;;;;;;;;5.40;99.90;;;;;;5012457;28;19917;-78
2023/12/15 00:26:55;;;;;;;;;;;5.40;99.90;;;;;;4995786;28;20347;-78
2023/12/15 00:29:22;;;;;;;;;;;5.30;99.90;;;;;;4996451;28;20259;-78
2023/12/15 00:31:47;;;;;;;;;;;5.30;99.90;;;;;;4997883;28;20012;-79
2023/12/15 00:34:13;;;;;;;;;;;5.30;99.90;;;;;;4997495;28;19945;-79
2023/12/15 00:36:38;;;;;;;;;;;5.20;99.90;;;;;;4997451;28;19917;-79
2023/12/15 00:39:04;;;;;;;;;;;5.20;99.90;;;;;;4997981;28;19924;-79
2023/12/15 00:41:29;;;;;;;;;;;5.20;99.90;;;;;;4993327;28;21028;-78
2023/12/15 00:43:55;;;;;;;;;;;5.20;99.90;;;;;;4996059;28;19925;-78
2023/12/15 00:46:20;;;;;;;;;;;5.10;99.90;;;;;;5001514;28;19915;-77
2023/12/15 00:48:46;;;;;;;;;;;5.10;99.90;;;;;;5016476;28;19926;-78
2023/12/15 00:51:11;;;;;;;;;;;5.20;99.90;;;;;;5001749;28;19941;-79
2023/12/15 00:53:36;;;;;;;;;;;5.10;99.90;;;;;;5001725;28;19921;-78
2023/12/15 00:56:02;;;;;;;;;;;5.10;99.90;;;;;;4998260;28;20032;-79
2023/12/15 00:58:28;;;;;;;;;;;5.10;99.90;;;;;;4997565;28;20800;-79
2023/12/15 01:00:53;;;;;;;;;;;5.10;99.90;;;;;;5015245;28;19924;-79
2023/12/15 01:03:19;;;;;;;;;;;5.10;99.90;;;;;;4995722;28;20517;-79
2023/12/15 01:05:44;;;;;;;;;;;5.00;99.90;;;;;;4986011;28;20001;-79
2023/12/15 01:08:10;;;;;;;;;;;5.00;99.90;;;;;;4998196;28;19913;-79
2023/12/15 01:10:35;;;;;;;;;;;5.00;99.90;;;;;;4999399;28;19917;-79
2023/12/15 01:13:01;;;;;;;;;;;5.00;99.90;;;;;;5000246;28;19917;-79
2023/12/15 01:15:26;;;;;;;;;;;5.00;99.90;;;;;;4999881;28;20934;-79
2023/12/15 01:17:52;;;;;;;;;;;5.00;99.90;;;;;;4998217;28;19925;-79
2023/12/15 01:20:17;;;;;;;;;;;4.90;99.90;;;;;;4994393;28;20068;-79
2023/12/15 01:22:43;;;;;;;;;;;4.90;99.90;;;;;;4999548;28;19905;-79
2023/12/15 01:25:09;;;;;;;;;;;4.90;99.90;;;;;;5003447;28;19894;-77
2023/12/15 01:27:35;;;;;;;;;;;4.90;99.90;;;;;;5002935;28;19936;-79
2023/12/15 01:30:00;;;;;;;;;;;4.90;99.90;;;;;;5003245;28;19910;-78
2023/12/15 01:32:26;;;;;;;;;;;4.90;99.90;;;;;;5001432;28;19916;-79
2023/12/15 01:34:51;;;;;;;;;;;4.80;99.90;;;;;;5001140;28;19956;-79
2023/12/15 01:37:17;;;;;;;;;;;4.80;99.90;;;;;;5002691;28;19924;-79
2023/12/15 01:39:42;;;;;;;;;;;4.80;99.90;;;;;;5003209;28;19917;-79
2023/12/15 01:42:08;;;;;;;;;;;4.80;99.90;;;;;;5002750;28;20429;-78
2023/12/15 01:44:33;;;;;;;;;;;4.80;99.90;;;;;;4998335;28;20008;-78
2023/12/15 01:47:00;;;;;;;;;;;4.70;99.90;;;;;;5004273;28;19913;-79
2023/12/15 01:49:27;;;;;;;;;;;4.70;99.90;;;;;;5000042;28;20387;-79
2023/12/15 01:51:52;;;;;;;;;;;4.70;99.90;;;;;;5000896;28;20329;-78
2023/12/15 01:54:18;;;;;;;;;;;4.70;99.90;;;;;;5000703;28;19921;-79
2023/12/15 01:56:43;;;;;;;;;;;4.70;99.90;;;;;;4997620;28;19917;-79
2023/12/15 01:59:10;;;;;;;;;;;4.70;99.90;;;;;;5001128;28;20003;-78
2023/12/15 02:01:36;;;;;;;;;;;4.70;99.90;;;;;;5001158;28;19913;-78
2023/12/15 02:04:01;;;;;;;;;;;4.70;99.90;;;;;;4992649;28;20271;-78
2023/12/15 02:06:27;;;;;;;;;;;4.70;99.90;;;;;;5003701;28;19973;-79
2023/12/15 02:08:52;;;;;;;;;;;4.60;99.90;;;;;;5007367;28;19921;-78
2023/12/15 02:11:18;;;;;;;;;;;4.60;99.90;;;;;;5005101;28;19904;-79
2023/12/15 02:13:43;;;;;;;;;;;4.60;99.90;;;;;;5003986;28;19910;-79
2023/12/15 02:16:09;;;;;;;;;;;4.60;99.90;;;;;;4996658;28;19914;-78
2023/12/15 02:18:35;;;;;;;;;;;4.60;99.90;;;;;;4999604;28;19910;-78
2023/12/15 02:21:00;;;;;;;;;;;4.60;99.90;;;;;;4999117;28;19929;-79
2023/12/15 02:23:26;;;;;;;;;;;4.60;99.90;;;;;;5000415;28;19910;-78
2023/12/15 02:25:51;;;;;;;;;;;4.60;99.90;;;;;;4989821;28;20545;-72
2023/12/15 02:28:17;;;;;;;;;;;4.60;99.90;;;;;;4984196;28;19918;-72
2023/12/15 02:30:42;;;;;;;;;;;4.60;99.90;;;;;;4984223;28;19941;-73
2023/12/15 02:33:08;;;;;;;;;;;4.60;99.90;;;;;;4988960;28;20420;-73
2023/12/15 02:35:34;;;;;;;;;;;4.60;99.90;;;;;;4986619;28;19920;-73
2023/12/15 02:38:00;;;;;;;;;;;4.60;99.90;;;;;;4985492;28;19914;-72
2023/12/15 02:40:26;;;;;;;;;;;4.60;99.90;;;;;;4984732;28;19917;-72
2023/12/15 02:42:51;;;;;;;;;;;4.60;99.90;;;;;;4989364;28;19917;-73
2023/12/15 02:45:17;;;;;;;;;;;4.60;99.90;;;;;;4987255;28;19917;-72
2023/12/15 02:47:42;;;;;;;;;;;4.60;99.90;;;;;;4988815;28;19917;-73
2023/12/15 02:50:09;;;;;;;;;;;4.60;99.90;;;;;;4988480;28;19951;-73
2023/12/15 02:52:35;;;;;;;;;;;4.60;99.90;;;;;;4995771;28;19916;-73
2023/12/15 02:55:00;;;;;;;;;;;4.60;99.90;;;;;;4988710;28;19913;-72
2023/12/15 02:57:26;;;;;;;;;;;4.60;99.90;;;;;;4989814;28;19910;-73
2023/12/15 02:59:51;;;;;;;;;;;4.50;99.90;;;;;;4986154;28;19979;-73
2023/12/15 03:02:17;;;;;;;;;;;4.50;99.90;;;;;;4990110;28;20283;-73
2023/12/15 03:04:42;;;;;;;;;;;4.50;99.90;;;;;;4988435;28;19988;-72
2023/12/15 03:07:08;;;;;;;;;;;4.50;99.90;;;;;;4984847;28;20016;-71
2023/12/15 03:09:33;;;;;;;;;;;4.40;99.90;;;;;;5001208;28;19953;-72
2023/12/15 03:11:59;;;;;;;;;;;4.40;99.90;;;;;;4987831;28;19917;-73
2023/12/15 03:14:24;;;;;;;;;;;4.50;99.90;;;;;;4986420;28;19991;-72
2023/12/15 03:16:50;;;;;;;;;;;4.50;99.90;;;;;;4988908;28;19914;-72
2023/12/15 03:19:15;;;;;;;;;;;4.40;99.90;;;;;;4985683;28;19913;-72
2023/12/15 03:21:41;;;;;;;;;;;4.40;99.90;;;;;;4987132;28;19921;-72
2023/12/15 03:24:06;;;;;;;;;;;4.40;99.90;;;;;;4984286;28;20305;-72
2023/12/15 03:26:32;;;;;;;;;;;4.40;99.90;;;;;;4984249;28;19913;-72
2023/12/15 03:28:57;;;;;;;;;;;4.30;99.90;;;;;;4986858;28;20115;-72
2023/12/15 03:31:22;;;;;;;;;;;4.30;99.90;;;;;;4986092;28;19933;-73
2023/12/15 03:33:48;;;;;;;;;;;4.30;99.90;;;;;;4985276;28;20626;-73
2023/12/15 03:36:13;;;;;;;;;;;4.30;99.90;;;;;;4992182;28;19921;-79
2023/12/15 03:38:39;;;;;;;;;;;4.20;99.90;;;;;;4992807;28;19920;-77
2023/12/15 03:41:05;;;;;;;;;;;4.20;99.90;;;;;;5001538;28;19915;-78
2023/12/15 03:43:30;;;;;;;;;;;4.20;99.90;;;;;;5001699;28;19956;-78
2023/12/15 03:45:56;;;;;;;;;;;4.20;99.90;;;;;;4992312;28;19968;-72
2023/12/15 03:48:21;;;;;;;;;;;4.20;99.90;;;;;;4989703;28;19925;-72
2023/12/15 03:50:47;;;;;;;;;;;4.20;99.90;;;;;;4990352;28;19924;-72
2023/12/15 03:53:12;;;;;;;;;;;4.10;99.90;;;;;;4990493;28;19955;-71
2023/12/15 03:55:38;;;;;;;;;;;4.10;99.90;;;;;;4988359;28;19937;-71
2023/12/15 03:58:03;;;;;;;;;;;4.10;99.90;;;;;;4989487;28;19914;-71
2023/12/15 04:00:29;;;;;;;;;;;4.10;99.90;;;;;;4985964;28;20375;-72
2023/12/15 04:02:54;;;;;;;;;;;4.10;99.90;;;;;;4992552;28;19910;-70
2023/12/15 04:05:20;;;;;;;;;;;4.10;99.90;;;;;;4987964;28;19909;-71
2023/12/15 04:07:45;;;;;;;;;;;4.10;99.90;;;;;;4991002;28;19921;-71
2023/12/15 04:10:11;;;;;;;;;;;4.00;99.90;;;;;;4989544;28;19918;-71
2023/12/15 04:12:36;;;;;;;;;;;4.00;99.90;;;;;;4992445;28;20012;-71
2023/12/15 04:15:02;;;;;;;;;;;4.00;99.90;;;;;;4992751;28;19917;-71
2023/12/15 04:17:27;;;;;;;;;;;4.00;99.90;;;;;;4991037;28;19972;-71
2023/12/15 04:19:53;;;;;;;;;;;3.90;99.90;;;;;;4994194;28;19989;-71
2023/12/15 04:22:19;;;;;;;;;;;4.00;99.90;;;;;;4987526;28;19914;-72
2023/12/15 04:24:45;;;;;;;;;;;4.00;99.90;;;;;;4986231;28;19921;-72
2023/12/15 04:27:10;;;;;;;;;;;4.00;99.90;;;;;;4988822;28;19920;-71
2023/12/15 04:29:36;;;;;;;;;;;4.00;99.90;;;;;;4987139;28;20317;-70
2023/12/15 04:32:02;;;;;;;;;;;4.10;99.90;;;;;;4987851;28;19922;-72
2023/12/15 04:34:28;;;;;;;;;;;4.00;99.90;;;;;;4986160;28;19913;-71
2023/12/15 04:36:54;;;;;;;;;;;4.10;99.90;;;;;;4990760;28;20391;-71
2023/12/15 04:39:19;;;;;;;;;;;4.00;99.90;;;;;;4987809;28;20032;-71
2023/12/15 04:41:45;;;;;;;;;;;4.00;99.90;;;;;;4990545;28;19909;-72
2023/12/15 04:44:10;;;;;;;;;;;3.90;99.90;;;;;;4991788;28;19972;-72
2023/12/15 04:46:36;;;;;;;;;;;3.90;99.90;;;;;;4990874;28;19959;-73
2023/12/15 04:49:04;;;;;;;;;;;3.90;99.90;;;;;;5003540;28;20289;-73
2023/12/15 04:51:29;;;;;;;;;;;3.90;99.90;;;;;;4987661;28;19928;-74
2023/12/15 04:53:55;;;;;;;;;;;3.90;99.90;;;;;;4987774;28;19917;-74
2023/12/15 04:56:20;;;;;;;;;;;3.90;99.90;;;;;;4993779;28;19917;-77
2023/12/15 04:58:46;;;;;;;;;;;3.90;99.90;;;;;;4996092;28;19914;-80
2023/12/15 05:01:13;;;;;;;;;;;3.90;99.90;;;;;;4997403;28;19993;-78
2023/12/15 05:03:41;;;;;;;;;;;3.90;99.90;;;;;;4995033;28;19918;-79
2023/12/15 05:06:20;;;;;;;;;;;3.90;99.90;;;;;;4998537;28;19914;-78
2023/12/15 05:08:46;;;;;;;;;;;3.90;99.90;;;;;;4999584;28;19913;-77
2023/12/15 05:11:11;;;;;;;;;;;3.90;99.90;;;;;;5000657;28;19985;-78
2023/12/15 05:13:37;;;;;;;;;;;4.00;99.90;;;;;;5004546;28;20020;-77
2023/12/15 05:16:02;;;;;;;;;;;3.90;99.90;;;;;;5004359;28;19910;-78
2023/12/15 05:18:28;;;;;;;;;;;3.90;99.90;;;;;;4998107;28;19945;-78
2023/12/15 05:20:53;;;;;;;;;;;3.90;99.90;;;;;;4997554;28;19922;-78
2023/12/15 05:23:19;;;;;;;;;;;3.80;99.90;;;;;;5000621;28;19921;-78
2023/12/15 05:25:44;;;;;;;;;;;3.80;99.90;;;;;;4995370;28;19937;-78
2023/12/15 05:28:10;;;;;;;;;;;3.80;99.90;;;;;;4998029;28;19926;-78
2023/12/15 05:30:35;;;;;;;;;;;3.80;99.90;;;;;;4993303;28;19917;-78
2023/12/15 05:33:01;;;;;;;;;;;3.80;99.90;;;;;;4999891;28;19917;-78
2023/12/15 05:35:27;;;;;;;;;;;3.70;99.90;;;;;;4999084;28;20016;-79
2023/12/15 05:37:53;;;;;;;;;;;3.70;99.90;;;;;;4992309;28;20430;-79
2023/12/15 05:40:18;;;;;;;;;;;3.80;99.90;;;;;;4993286;28;19916;-78
2023/12/15 05:42:44;;;;;;;;;;;3.80;99.90;;;;;;4998710;28;19914;-78
2023/12/15 05:45:10;;;;;;;;;;;3.80;99.90;;;;;;5002878;28;20535;-78
2023/12/15 05:47:36;;;;;;;;;;;3.80;99.90;;;;;;4996733;28;19923;-79
2023/12/15 05:50:01;;;;;;;;;;;3.90;99.90;;;;;;4994213;28;19913;-79
2023/12/15 05:52:27;;;;;;;;;;;3.80;99.90;;;;;;5000614;28;20124;-78
2023/12/15 05:54:52;;;;;;;;;;;3.80;99.90;;;;;;4995601;28;19918;-73
2023/12/15 05:57:18;;;;;;;;;;;3.80;99.90;;;;;;4985479;28;19913;-74
2023/12/15 05:59:43;;;;;;;;;;;3.80;99.90;;;;;;4984266;28;20310;-71
2023/12/15 06:02:09;;;;;;;;;;;3.80;99.90;;;;;;4980752;28;20021;-72
2023/12/15 06:04:35;;;;;;;;;;;3.90;99.90;;;;;;4981449;28;19917;-72
2023/12/15 06:07:01;;;;;;;;;;;3.90;99.90;;;;;;4995457;28;19914;-76
2023/12/15 06:09:26;;;;;;;;;;;3.90;99.90;;;;;;4995810;28;19913;-76
2023/12/15 06:11:53;;;;;;;;;;;3.90;99.90;;;;;;4996140;28;19961;-75
2023/12/15 06:14:20;;;;;;;;;;;3.90;99.90;;;;;;4998436;28;19918;-76
2023/12/15 06:16:49;;;;;;;;;;;3.90;99.90;;;;;;4994722;28;19990;-74
2023/12/15 06:19:15;;;;;;;;;;;3.80;99.90;;;;;;4993301;28;19967;-75
2023/12/15 06:21:40;;;;;;;;;;;3.80;99.90;;;;;;4992082;28;20463;-75
2023/12/15 06:24:06;;;;;;;;;;;3.80;99.90;;;;;;5005165;28;19949;-76
2023/12/15 06:26:31;;;;;;;;;;;3.70;99.90;;;;;;4990356;28;19956;-75
2023/12/15 06:28:57;;;;;;;;;;;3.80;99.90;;;;;;4990973;28;19917;-75
2023/12/15 06:31:25;;;;;;;;;;;3.80;99.90;;;;;;4990223;28;19957;-76
2023/12/15 06:33:51;;;;;;;;;;;3.70;99.90;;;;;;4996089;28;19927;-75
2023/12/15 06:36:17;;;;;;;;;;;3.70;99.90;;;;;;4992424;28;19902;-76
2023/12/15 06:38:43;;;;;;;;;;;3.70;99.90;;;;;;4996011;28;19917;-76
2023/12/15 06:41:09;;;;;;;;;;;3.70;99.90;;;;;;4986959;28;19965;-77
2023/12/15 06:43:38;;;;;;;;;;;3.70;99.90;;;;;;4988741;28;19917;-79
2023/12/15 06:46:03;;;;;;;;;;;3.60;99.90;;;;;;4991623;28;19917;-75
2023/12/15 06:48:29;;;;;;;;;;;3.60;99.90;;;;;;4993377;28;19914;-76
2023/12/15 06:50:54;;;;;;;;;;;3.60;99.90;;;;;;4999145;28;19924;-76
2023/12/15 06:53:20;;;;;;;;;;;3.60;99.90;;;;;;5001379;28;19976;-76
2023/12/15 06:55:45;;;;;;;;;;;3.60;99.90;;;;;;4995187;28;19993;-76
2023/12/15 06:58:10;;;;;;;;;;;3.50;99.90;;;;;;4995682;28;19944;-73
2023/12/15 07:00:37;;;;;;;;;;;3.50;99.90;;;;;;4993073;28;19945;-75
2023/12/15 07:03:04;;;;;;;;;;;3.50;99.90;;;;;;4989194;28;19910;-76
2023/12/15 07:05:29;;;;;;;;;;;3.40;99.90;;;;;;4996164;28;19918;-72
2023/12/15 07:07:55;;;;;;;;;;;3.40;99.90;;;;;;4985724;28;19967;-72
2023/12/15 07:10:20;;;;;;;;;;;3.40;99.90;;;;;;4986711;28;19944;-72
2023/12/15 07:12:46;;;;;;;;;;;3.40;99.90;;;;;;4992737;28;19962;-71
2023/12/15 07:15:12;;;;;;;;;;;3.40;99.90;;;;;;4988187;28;19909;-72
2023/12/15 07:17:37;;;;;;;;;;;3.40;99.90;;;;;;4989266;28;19918;-73
2023/12/15 07:20:04;;;;;;;;;;;3.50;99.90;;;;;;4990313;28;19914;-73
2023/12/15 07:22:29;;;;;;;;;;;3.50;99.90;;;;;;4990241;28;19918;-73
2023/12/15 07:24:55;;;;;;;;;;;3.50;99.90;;;;;;4990513;28;22062;-72
2023/12/15 07:27:21;;;;;;;;;;;3.60;99.90;;;;;;4987986;28;19929;-73
2023/12/15 07:29:46;;;;;;;;;;;3.60;99.90;;;;;;4985615;28;19913;-73
2023/12/15 07:32:12;;;;;;;;;;;3.60;99.90;;;;;;4983505;28;19997;-73
2023/12/15 07:34:37;;;;;;;;;;;3.60;99.90;;;;;;4983565;28;19953;-74
2023/12/15 07:37:03;;;;;;;;;;;3.60;99.90;;;;;;4993255;28;19952;-73
2023/12/15 07:39:28;;;;;;;;;;;3.60;99.90;;;;;;4993797;28;20012;-73
2023/12/15 07:41:54;;;;;;;;;;;3.70;99.90;;;;;;4992153;28;20351;-73
2023/12/15 07:44:20;;;;;;;;;;;3.70;99.90;;;;;;4992278;28;19920;-74
2023/12/15 07:46:46;;;;;;;;;;;3.70;99.90;;;;;;4994136;28;19933;-73
2023/12/15 07:49:11;;;;;;;;;;;3.70;99.90;;;;;;4992203;28;19917;-73
2023/12/15 07:51:37;;;;;;;;;;;3.80;99.90;;;;;;4988203;28;19962;-73
2023/12/15 07:54:02;;;;;;;;;;;3.70;99.90;;;;;;4996038;28;19913;-71
2023/12/15 07:56:28;;;;;;;;;;;3.70;99.90;;;;;;4989435;28;19920;-72
2023/12/15 07:58:54;;;;;;;;;;;3.60;99.90;;;;;;4990914;28;19968;-73
2023/12/15 08:01:21;;;;;;;;;;;3.60;99.90;;;;;;4991954;28;19929;-73
2023/12/15 08:03:46;;;;;;;;;;;3.60;99.90;;;;;;4991182;28;19981;-73
2023/12/15 08:06:13;;;;;;;;;;;3.60;99.90;;;;;;4990967;28;20004;-73
2023/12/15 08:08:39;;;;;;;;;;;3.60;99.90;;;;;;4991287;28;20436;-72
2023/12/15 08:11:05;;;;;;;;;;;3.60;99.90;;;;;;4990672;28;19920;-73
2023/12/15 08:13:31;;;;;;;;;;;3.60;99.90;;;;;;4989575;28;20266;-72
2023/12/15 08:15:57;;;;;;;;;;;3.60;99.90;;;;;;4995520;28;20286;-79
2023/12/15 08:18:25;;;;;;;;;;;3.60;99.90;;;;;;5004388;28;20521;-79
2023/12/15 08:21:11;;;;;;;;;;;3.50;99.90;;;;;;5000710;28;19922;-80
2023/12/15 08:23:37;;;;;;;;;;;3.50;99.90;;;;;;5002775;28;19914;-81
2023/12/15 08:26:02;;;;;;;;;;;3.50;99.90;;;;;;5001949;28;19989;-77
2023/12/15 08:28:28;;;;;;;;;;;3.50;99.90;;;;;;5001071;28;19923;-77
2023/12/15 08:30:57;;;;;;;;;;;3.60;99.90;;;;;;4998294;28;19908;-78
2023/12/15 08:33:23;;;;;;;;;;;3.60;99.90;;;;;;5018670;28;19894;-77
2023/12/15 08:35:51;;;;;;;;;;;3.60;99.90;;;;;;5001189;28;19955;-78
2023/12/15 08:38:19;;;;;;;;;;;3.60;99.90;;;;;;4996986;28;19974;-78
2023/12/15 08:40:45;;;;;;;;;;;3.60;99.90;;;;;;4999796;28;19910;-77
2023/12/15 08:43:11;;;;;;;;;;;3.70;99.90;;;;;;5001120;28;20012;-79
2023/12/15 08:45:37;;;;;;;;;;;3.70;99.90;;;;;;5010307;28;19981;-77
2023/12/15 08:48:05;;;;;;;;;;;3.70;99.90;;;;;;5021458;28;19917;-78
2023/12/15 08:50:30;;;;;;;;;;;3.80;99.90;;;;;;5003717;28;19961;-77
2023/12/15 08:53:02;;;;;;;;;;;3.80;99.90;;;;;;5009585;28;19972;-77
2023/12/15 08:55:27;;;;;;;;;;;3.90;99.90;;;;;;5019114;23;19967;-31
2023/12/15 08:57:53;;;;;;;;;;;3.90;99.90;;;;;;4999405;28;19914;-34
2023/12/15 09:00:19;;;;;;;;;;;3.90;99.90;;;;;;4996554;28;20402;-32
2023/12/15 09:02:45;;;;;;;;;;;4.00;99.90;;;;;;5011610;28;20086;-32
2023/12/15 09:05:10;;;;;;;;;;;4.10;99.90;;;;;;5004139;28;19973;-34
2023/12/15 09:07:36;;;;;;;;;;;4.10;99.90;;;;;;5004132;28;19921;-32
2023/12/15 09:10:04;;;;;;;;;;;4.10;99.90;;;;;;4999099;28;20351;-29
2023/12/15 09:12:30;;;;;;;;;;;4.10;99.90;;;;;;5000936;28;19918;-31
2023/12/15 09:14:56;;;;;;;;;;;4.20;99.90;;;;;;5005817;28;19967;-31
2023/12/15 09:17:21;;;;;;;;;;;4.10;99.90;;;;;;5002852;28;19917;-30
2023/12/15 09:19:47;;;;;;;;;;;4.20;99.90;;;;;;5003481;28;19913;-30
2023/12/15 09:22:12;;;;;;;;;;;4.20;99.90;;;;;;4998192;28;19909;-30
2023/12/15 09:24:38;;;;;;;;;;;4.30;99.90;;;;;;5003842;28;19924;-31
2023/12/15 09:27:04;;;;;;;;;;;4.20;99.90;;;;;;4995783;28;19924;-31
2023/12/15 09:29:31;;;;;;;;;;;4.30;99.90;;;;;;5011220;28;20553;-30
2023/12/15 09:31:56;;;;;;;;;;;4.30;99.90;;;;;;5000975;28;20454;-33
2023/12/15 09:34:22;;;;;;;;;;;4.30;99.90;;;;;;4997235;28;20013;-32
2023/12/15 09:36:48;;;;;;;;;;;4.30;99.90;;;;;;4999270;28;22093;-31
2023/12/15 09:39:14;;;;;;;;;;;4.30;99.90;;;;;;5000720;28;19910;-29
2023/12/15 09:41:39;;;;;;;;;;;4.30;99.90;;;;;;4997454;28;20149;-31
2023/12/15 09:44:05;;;;;;;;;;;4.30;99.90;;;;;;5001982;28;20632;-29
2023/12/15 09:46:31;;;;;;;;;;;4.40;99.90;;;;;;4996912;28;19906;-30
2023/12/15 09:48:56;;;;;;;;;;;4.40;99.90;;;;;;5001910;28;19935;-29
2023/12/15 09:51:23;;;;;;;;;;;4.40;99.90;;;;;;5002443;28;19962;-30
2023/12/15 09:53:48;;;;;;;;;;;4.50;99.90;;;;;;5000503;28;20414;-41
2023/12/15 09:56:14;;;;;;;;;;;4.50;99.90;;;;;;4996948;28;19928;-37
2023/12/15 09:58:40;;;;;;;;;;;4.60;99.90;;;;;;4993734;28;19983;-38
2023/12/15 10:01:06;;;;;;;;;;;4.60;99.90;;;;;;4998885;28;19960;-36
2023/12/15 10:03:32;;;;;;;;;;;4.60;99.90;;;;;;4994229;28;20294;-38
2023/12/15 10:05:57;;;;;;;;;;;4.60;99.90;;;;;;4997378;28;19971;-35
2023/12/15 10:08:24;;;;;;;;;;;4.60;99.90;;;;;;5000896;28;20354;-37
2023/12/15 10:10:50;;;;;;;;;;;4.70;99.90;;;;;;4999090;28;19913;-35
2023/12/15 10:13:16;;;;;;;;;;;4.80;99.90;;;;;;4998134;28;19913;-39
2023/12/15 10:15:41;;;;;;;;;;;4.80;99.90;;;;;;4997270;28;20363;-39
2023/12/15 10:18:07;;;;;;;;;;;4.80;99.90;;;;;;4997049;28;19909;-37
2023/12/15 10:20:33;;;;;;;;;;;4.80;99.90;;;;;;4998992;28;19910;-38
2023/12/15 10:23:02;;;;;;;;;;;4.80;99.90;;;;;;4999358;28;20288;-37
2023/12/15 10:25:29;;;;;;;;;;;4.80;99.90;;;;;;4996722;28;20294;-39
2023/12/15 10:27:54;;;;;;;;;;;4.80;99.90;;;;;;4997067;28;19976;-35
2023/12/15 10:30:20;;;;;;;;;;;4.80;99.90;;;;;;4996494;28;19936;-39
2023/12/15 10:32:46;;;;;;;;;;;4.80;99.90;;;;;;5009515;28;19924;-39
2023/12/15 10:35:12;;;;;;;;;;;4.80;99.90;;;;;;4992905;28;19948;-36
2023/12/15 10:37:38;;;;;;;;;;;4.90;99.90;;;;;;4994370;28;19921;-36
2023/12/15 10:40:04;;;;;;;;;;;5.00;99.90;;;;;;4991814;28;20282;-36
2023/12/15 10:42:30;;;;;;;;;;;5.00;99.90;;;;;;4995067;28;20626;-38
2023/12/15 10:44:59;;;;;;;;;;;5.00;99.90;;;;;;4998546;28;19914;-38
2023/12/15 10:47:26;;;;;;;;;;;5.00;99.90;;;;;;4989583;28;19921;-39
2023/12/15 10:49:52;;;;;;;;;;;5.00;99.90;;;;;;5003118;28;20355;-35
2023/12/15 10:52:21;;;;;;;;;;;5.10;99.90;;;;;;4999977;28;19986;-39
2023/12/15 10:54:50;;;;;;;;;;;5.00;99.90;;;;;;4998378;28;20004;-38
2023/12/15 10:57:16;;;;;;;;;;;5.10;99.90;;;;;;4998781;28;20383;-39
2023/12/15 10:59:41;;;;;;;;;;;5.20;99.90;;;;;;5000733;28;19913;-38
2023/12/15 11:02:11;;;;;;;;;;;5.20;99.90;;;;;;4999506;28;20352;-34
2023/12/15 11:04:37;;;;;;;;;;;5.20;99.90;;;;;;4999552;28;20391;-32
2023/12/15 11:07:02;;;;;;;;;;;5.20;99.90;;;;;;4999354;28;19928;-33
2023/12/15 11:09:30;;;;;;;;;;;5.30;99.90;;;;;;5000975;28;20334;-31
2023/12/15 11:12:14;;;;;;;;;;;5.30;99.90;;;;;;4998442;28;19924;-33
2023/12/15 11:14:40;;;;;;;;;;;5.20;99.90;;;;;;5001012;28;20587;-31
2023/12/15 11:17:09;;;;;;;;;;;5.30;99.90;;;;;;4996582;28;19913;-33
2023/12/15 11:19:39;;;;;;;;;;;5.30;99.90;;;;;;5004336;28;20047;-31
2023/12/15 11:22:05;;;;;;;;;;;5.30;99.90;;;;;;5000889;28;19996;-31
2023/12/15 11:24:32;;;;;;;;;;;5.30;99.90;;;;;;5003858;28;20475;-34
2023/12/15 11:26:58;;;;;;;;;;;5.30;99.90;;;;;;4998493;28;19917;-32
2023/12/15 11:29:24;;;;;;;;;;;5.30;99.90;;;;;;4997230;28;19955;-34
2023/12/15 11:31:56;;;;;;;;;;;5.30;99.90;;;;;;5005877;28;20406;-31
2023/12/15 11:34:37;;;;;;;;;;;5.30;99.90;;;;;;4997990;28;20302;-33
2023/12/15 11:37:15;;;;;;;;;;;5.30;99.90;;;;;;5005672;28;20327;-31
2023/12/15 11:39:46;;;;;;;;;;;5.30;99.90;;;;;;5001550;28;19917;-31
2023/12/15 11:42:13;;;;;;;;;;;5.20;99.90;;;;;;5002901;28;20299;-31
2023/12/15 11:44:38;;;;;;;;;;;5.30;99.90;;;;;;5001090;28;20000;-30
2023/12/15 11:47:06;;;;;;;;;;;5.30;99.90;;;;;;5006759;28;20449;-31
2023/12/15 11:49:32;;;;;;;;;;;5.40;99.90;;;;;;5008530;28;19916;-32
2023/12/15 11:51:58;;;;;;;;;;;5.40;99.90;;;;;;4993515;28;20445;-34
2023/12/15 11:54:25;;;;;;;;;;;5.50;99.90;;;;;;5006884;28;19913;-34
2023/12/15 11:56:51;;;;;;;;;;;5.50;99.90;;;;;;4993753;28;20930;-31
2023/12/15 11:59:19;;;;;;;;;;;5.50;99.90;;;;;;4999407;28;19920;-32
2023/12/15 12:01:45;;;;;;;;;;;5.50;99.90;;;;;;5002396;28;20075;-36
2023/12/15 12:04:18;;;;;;;;;;;5.50;99.90;;;;;;5001149;28;19910;-34
2023/12/15 12:06:44;;;;;;;;;;;5.50;99.90;;;;;;4999656;28;20418;-31
2023/12/15 12:09:11;;;;;;;;;;;5.50;99.90;;;;;;5002755;28;20008;-31
2023/12/15 12:11:36;;;;;;;;;;;5.50;99.90;;;;;;5002288;28;19910;-33
2023/12/15 12:14:03;;;;;;;;;;;5.50;99.90;;;;;;5005724;28;20375;-37
2023/12/15 12:16:31;;;;;;;;;;;5.60;99.90;;;;;;5002194;28;19910;-36
2023/12/15 12:18:56;;;;;;;;;;;5.60;99.90;;;;;;5001718;28;19948;-33
2023/12/15 12:21:22;;;;;;;;;;;5.60;99.90;;;;;;4997566;28;19991;-36
2023/12/15 12:23:48;;;;;;;;;;;5.60;99.90;;;;;;4999689;28;19920;-35
2023/12/15 12:26:14;;;;;;;;;;;5.60;99.90;;;;;;4996177;28;20574;-34
2023/12/15 12:28:41;;;;;;;;;;;5.60;99.90;;;;;;4999753;28;20673;-36
2023/12/15 12:31:06;;;;;;;;;;;5.60;99.90;;;;;;4998353;28;19957;-36
2023/12/15 12:33:32;;;;;;;;;;;5.60;99.90;;;;;;4993544;28;20114;-36
2023/12/15 12:35:59;;;;;;;;;;;5.60;99.90;;;;;;4995501;28;20334;-35
2023/12/15 12:38:24;;;;;;;;;;;5.60;99.90;;;;;;4995868;28;19920;-37
2023/12/15 12:40:50;;;;;;;;;;;5.60;99.90;;;;;;4998541;28;20462;-34
2023/12/15 12:43:15;;;;;;;;;;;5.60;99.90;;;;;;4995688;28;19971;-39
2023/12/15 12:45:42;;;;;;;;;;;5.60;99.90;;;;;;4996216;28;20388;-36
2023/12/15 12:48:07;;;;;;;;;;;5.60;99.90;;;;;;5004980;28;19914;-37
2023/12/15 12:50:33;;;;;;;;;;;5.60;99.90;;;;;;4997812;28;19979;-33
2023/12/15 12:52:58;;;;;;;;;;;5.60;99.90;;;;;;5000069;28;19909;-39
2023/12/15 12:55:24;;;;;;;;;;;5.60;99.90;;;;;;4997291;28;19925;-36
2023/12/15 12:57:50;;;;;;;;;;;5.70;99.90;;;;;;5001957;28;19924;-36
2023/12/15 13:00:16;;;;;;;;;;;5.60;99.90;;;;;;4998974;28;19917;-35
2023/12/15 13:02:42;;;;;;;;;;;5.70;99.90;;;;;;5000416;28;20279;-38
2023/12/15 13:06:26;;;;;;;5.05;3.97;;;5.60;99.90;;;;;;5071627;27;20402;-33
2023/12/15 13:08:52;;;;;;;3.08;2.72;;;5.70;99.90;;;;;;5053079;28;20024;-35
2023/12/15 13:11:17;;;;;;;6.32;3.75;;;5.70;99.90;;;;;;5050130;28;20116;-35
2023/12/15 13:13:43;;;;;;;6.82;3.97;;;5.70;99.90;;;;;;5055859;28;20028;-33
2023/12/15 13:16:10;;;;;;;5.60;2.67;;;5.70;99.90;;;;;;5050070;28;20033;-32
2023/12/15 13:18:36;;;;;;;6.63;4.05;;;5.60;99.90;;;;;;5049785;28;20108;-29
2023/12/15 13:21:02;;;;;;;5.68;3.70;;;5.70;99.90;;;;;;5054906;28;20623;-33
2023/12/15 13:23:28;;;;;;;6.15;4.00;;;5.60;99.90;;;;;;5051826;28;20029;-35
2023/12/15 13:25:54;;;;;;;8.68;4.13;;;5.70;99.90;;;;;;5050349;28;20043;-32
2023/12/15 13:28:24;;;;;;;6.30;3.58;;;5.70;99.90;;;;;;5056319;28;20386;-32
2023/12/15 13:30:50;;;;;;;5.88;3.80;;;5.80;99.90;;;;;;5052733;28;20110;-32
2023/12/15 13:33:16;;;;;;;6.97;4.13;;;5.80;99.90;;;;;;5050000;27;20406;-32
2023/12/15 13:35:41;;;;;;;4.43;3.47;;;5.80;99.90;;;;;;5049220;28;20466;-33
2023/12/15 13:38:07;;;;;;;5.40;3.45;;;5.80;99.90;;;;;;5050195;28;20255;-32
2023/12/15 13:40:33;;;;;;;5.55;4.05;;;5.80;99.90;;;;;;5050089;28;20026;-33
2023/12/15 13:42:59;;;;;;;7.20;4.03;;;5.70;99.90;;;;;;5050586;28;20490;-34
2023/12/15 14:05:17;;;;;;;7.20;4.60;;;5.70;99.90;;;;;;5109517;27;20430;-34
2023/12/15 14:07:42;;;;;;;4.18;3.20;;;5.70;99.90;;;;;;5092487;28;20100;-31
2023/12/15 14:10:09;;;;;;;5.18;3.35;;;5.70;99.90;;;;;;5094501;28;20091;-30
2023/12/15 14:12:34;;;;;;;5.90;3.20;;;5.70;99.90;;;;;;5094787;28;20025;-30
2023/12/15 14:15:00;;;;;;;6.70;4.10;;;5.70;99.90;;;;;;5097717;28;20033;-31
2023/12/15 14:17:28;;;;;;;4.28;3.50;;;5.80;99.90;;;;;;5096918;28;20096;-32
2023/12/15 14:19:54;;;;;;;5.50;4.07;;;5.70;99.90;;;;;;5096384;27;20036;-33
2023/12/15 14:22:20;;;;;;;5.32;3.38;;;5.70;99.90;;;;;;5097975;28;20043;-33
2023/12/15 14:24:46;;;;;;;5.38;3.30;;;5.70;99.90;;;;;;5100925;28;20031;-36
2023/12/15 14:27:12;;;;;;;5.95;3.78;;;5.70;99.90;;;;;;5101456;28;20035;-31
2023/12/15 14:29:38;;;;;;;3.50;3.13;;;5.60;99.90;;;;;;5096834;28;20032;-30
2023/12/15 14:32:04;;;;;;;5.43;4.25;;;5.70;99.90;;;;;;5059555;27;20053;-28
2023/12/15 14:34:29;;;;;;;7.15;3.92;;;5.60;99.90;;;;;;5042306;28;20033;-28